createdAt,value
2022-10-25T00:00:06.519Z,12.31
2022-10-25T00:05:52.208Z,12.18
2022-10-25T00:11:20.931Z,12.11
2022-10-25T00:16:41.725Z,12.20
2022-10-25T00:22:02.432Z,12.22
2022-10-25T00:27:23.066Z,12.33
2022-10-25T00:32:43.716Z,12.35
2022-10-25T00:38:04.585Z,12.31
2022-10-25T00:43:47.959Z,12.19
2022-10-25T00:49:15.534Z,12.22
2022-10-25T00:54:42.690Z,12.21
2022-10-25T01:00:06.675Z,12.24
2022-10-25T01:05:27.680Z,12.29
2022-10-25T01:10:48.964Z,12.18
2022-10-25T01:16:51.603Z,12.14
2022-10-25T01:22:37.239Z,12.17
2022-10-25T01:28:07.279Z,12.09
2022-10-25T01:33:33.058Z,12.13
2022-10-25T01:39:33.525Z,12.17
2022-10-25T01:45:16.415Z,12.33
2022-10-25T01:50:41.380Z,12.35
2022-10-25T01:56:05.045Z,12.43
2022-10-25T02:01:35.998Z,12.54
2022-10-25T02:07:07.894Z,12.57
2022-10-25T02:12:53.127Z,12.62
2022-10-25T02:18:20.332Z,12.67
2022-10-25T02:23:42.023Z,12.57
2022-10-25T02:29:04.591Z,12.58
2022-10-25T02:34:25.866Z,12.55
2022-10-25T02:39:47.050Z,12.53
2022-10-25T02:45:08.690Z,12.48
2022-10-25T02:50:29.485Z,12.54
2022-10-25T02:56:03.136Z,12.56
2022-10-25T03:01:25.476Z,12.58
2022-10-25T03:06:45.878Z,12.43
2022-10-25T03:12:06.691Z,12.33
2022-10-25T03:17:27.263Z,12.26
2022-10-25T03:22:47.996Z,12.23
2022-10-25T03:28:08.981Z,12.30
2022-10-25T03:38:55.234Z,12.28
2022-10-25T03:44:15.934Z,12.31
2022-10-25T03:49:36.642Z,12.33
2022-10-25T03:54:57.233Z,12.28
2022-10-25T04:00:18.028Z,12.29
2022-10-25T04:05:38.996Z,12.21
2022-10-25T04:10:59.633Z,12.26
2022-10-25T04:16:20.218Z,12.24
2022-10-25T04:21:41.297Z,12.29
2022-10-25T04:27:01.925Z,12.17
2022-10-25T04:32:22.556Z,12.21
2022-10-25T04:37:43.254Z,12.11
2022-10-25T04:43:03.996Z,12.06
2022-10-25T04:48:24.608Z,12.13
2022-10-25T04:53:45.395Z,12.12
2022-10-25T04:59:07.502Z,12.45
2022-10-25T05:04:28.526Z,12.69
2022-10-25T05:09:49.274Z,12.43
2022-10-25T05:15:10.395Z,12.20
2022-10-25T05:20:31.049Z,12.10
2022-10-25T05:26:06.761Z,12.10
2022-10-25T05:31:30.153Z,12.06
2022-10-25T05:36:51.018Z,11.94
2022-10-25T05:42:11.903Z,11.79
2022-10-25T05:47:32.555Z,11.59
2022-10-25T05:52:53.434Z,11.56
2022-10-25T05:58:15.567Z,11.52
2022-10-25T06:03:37.191Z,11.52
2022-10-25T06:08:59.867Z,11.62
2022-10-25T06:14:20.912Z,11.72
2022-10-25T06:19:41.617Z,11.77
2022-10-25T06:25:02.327Z,11.89
2022-10-25T06:30:22.990Z,11.98
2022-10-25T06:35:43.511Z,12.06
2022-10-25T06:41:07.062Z,12.17
2022-10-25T06:46:30.621Z,12.25
2022-10-25T06:51:51.584Z,12.29
2022-10-25T06:57:12.255Z,12.28
2022-10-25T07:02:33.149Z,12.37
2022-10-25T07:07:53.892Z,12.48
2022-10-25T07:13:14.679Z,12.50
2022-10-25T07:18:36.285Z,12.54
2022-10-25T07:23:57.955Z,12.58
2022-10-25T07:29:18.947Z,12.67
2022-10-25T07:34:39.550Z,12.75
2022-10-25T07:40:00.596Z,12.77
2022-10-25T07:45:24.367Z,12.84
2022-10-25T07:50:47.751Z,12.91
2022-10-25T07:56:23.189Z,12.96
2022-10-25T08:01:44.607Z,12.99
2022-10-25T08:07:05.375Z,13.06
2022-10-25T08:12:26.252Z,13.08
2022-10-25T08:17:47.075Z,13.15
2022-10-25T08:23:07.820Z,13.50
2022-10-25T08:28:31.102Z,13.59
2022-10-25T08:33:51.556Z,13.62
2022-10-25T08:39:12.239Z,13.72
2022-10-25T08:44:44.510Z,13.80
2022-10-25T08:50:15.045Z,13.95
2022-10-25T08:55:41.711Z,14.10
2022-10-25T09:01:20.950Z,14.11
2022-10-25T09:07:08.798Z,14.15
2022-10-25T09:12:46.790Z,14.19
2022-10-25T09:18:16.006Z,14.30
2022-10-25T09:23:36.563Z,14.45
2022-10-25T09:29:11.080Z,14.50
2022-10-25T09:34:35.747Z,14.51
2022-10-25T09:40:01.170Z,14.65
2022-10-25T09:45:42.061Z,14.63
2022-10-25T09:51:38.286Z,14.63
2022-10-25T09:56:59.314Z,14.67
2022-10-25T10:02:24.742Z,14.82
2022-10-25T10:07:47.250Z,15.00
2022-10-25T10:13:17.469Z,15.08
2022-10-25T10:18:38.480Z,15.09
2022-10-25T10:24:05.422Z,14.99
2022-10-25T10:29:28.841Z,14.96
2022-10-25T10:34:55.336Z,14.91
2022-10-25T10:40:15.802Z,15.05
2022-10-25T10:45:36.580Z,15.11
2022-10-25T10:50:57.313Z,15.08
2022-10-25T10:56:23.116Z,15.08
2022-10-25T11:01:44.239Z,15.16
2022-10-25T11:07:24.525Z,15.32
2022-10-25T11:12:45.284Z,15.51
2022-10-25T11:18:07.588Z,15.52
2022-10-25T11:23:38.697Z,15.60
2022-10-25T11:29:19.472Z,15.64
2022-10-25T11:34:48.180Z,15.77
2022-10-25T11:40:17.091Z,15.77
2022-10-25T11:45:44.277Z,15.69
2022-10-25T11:51:14.205Z,15.66
2022-10-25T11:57:00.583Z,15.63
2022-10-25T12:03:03.183Z,15.52
2022-10-25T12:08:42.350Z,15.54
2022-10-25T12:14:11.015Z,15.67
2022-10-25T12:19:42.028Z,15.84
2022-10-25T12:25:14.434Z,15.99
2022-10-25T12:30:40.965Z,16.02
2022-10-25T12:36:18.330Z,15.95
2022-10-25T12:41:40.647Z,15.76
2022-10-25T12:47:26.107Z,15.66
2022-10-25T12:53:13.658Z,15.64
2022-10-25T12:58:52.906Z,15.87
2022-10-25T13:04:42.240Z,15.99
2022-10-25T13:10:15.434Z,15.97
2022-10-25T13:15:46.389Z,15.90
2022-10-25T13:21:37.513Z,15.93
2022-10-25T13:27:13.719Z,15.73
2022-10-25T13:32:36.323Z,15.60
2022-10-25T13:38:09.687Z,15.55
2022-10-25T13:43:30.598Z,15.44
2022-10-25T13:48:51.490Z,15.42
2022-10-25T13:54:12.810Z,15.52
2022-10-25T13:59:49.975Z,15.65
2022-10-25T14:05:11.844Z,15.61
2022-10-25T14:10:36.084Z,15.62
2022-10-25T14:16:00.905Z,15.67
2022-10-25T14:21:24.927Z,15.75
2022-10-25T14:26:55.628Z,15.79
2022-10-25T14:32:21.809Z,15.94
2022-10-25T14:37:43.446Z,15.90
2022-10-25T14:43:35.490Z,15.93
2022-10-25T14:48:58.479Z,15.84
2022-10-25T14:54:25.882Z,15.78
2022-10-25T14:59:51.512Z,15.61
2022-10-25T15:05:20.525Z,15.46
2022-10-25T15:10:44.169Z,15.40
2022-10-25T15:16:24.917Z,15.35
2022-10-25T15:21:49.012Z,15.27
2022-10-25T15:27:27.328Z,15.22
2022-10-25T15:32:48.372Z,15.38
2022-10-25T15:38:11.548Z,15.49
2022-10-25T15:43:32.115Z,15.43
2022-10-25T15:48:53.163Z,15.27
2022-10-25T15:54:19.880Z,15.12
2022-10-25T15:59:40.440Z,15.03
2022-10-25T16:05:01.265Z,15.01
2022-10-25T16:10:24.266Z,14.89
2022-10-25T16:15:45.136Z,14.83
2022-10-25T16:21:05.925Z,14.67
2022-10-25T16:26:35.019Z,14.61
2022-10-25T16:31:55.640Z,14.63
2022-10-25T16:37:16.289Z,14.59
2022-10-25T16:42:38.772Z,14.59
2022-10-25T16:48:00.207Z,14.57
2022-10-25T16:53:21.189Z,14.52
2022-10-25T16:58:43.066Z,14.39
2022-10-25T17:04:05.251Z,14.23
2022-10-25T17:09:26.154Z,13.99
2022-10-25T17:14:47.050Z,13.93
2022-10-25T17:20:09.737Z,13.94
2022-10-25T17:25:30.375Z,13.93
2022-10-25T17:30:51.099Z,13.80
2022-10-25T17:36:14.716Z,13.74
2022-10-25T17:41:35.927Z,13.71
2022-10-25T17:46:58.522Z,13.46
2022-10-25T17:52:21.372Z,13.37
2022-10-25T17:57:43.688Z,13.37
2022-10-25T18:03:04.586Z,13.41
2022-10-25T18:08:25.198Z,13.33
2022-10-25T18:13:45.889Z,13.32
2022-10-25T18:19:07.149Z,13.24
2022-10-25T18:24:31.099Z,13.17
2022-10-25T18:29:51.838Z,13.04
2022-10-25T18:35:12.790Z,13.64
2022-10-25T18:40:33.933Z,13.32
2022-10-25T18:45:58.295Z,13.05
2022-10-25T18:51:21.630Z,12.86
2022-10-25T18:56:42.617Z,12.77
2022-10-25T19:02:03.690Z,12.65
2022-10-25T19:07:24.741Z,12.55
2022-10-25T19:12:45.838Z,12.47
2022-10-25T19:18:06.314Z,12.28
2022-10-25T19:23:27.023Z,12.09
2022-10-25T19:28:48.056Z,12.13
2022-10-25T19:34:09.082Z,12.23
2022-10-25T19:39:32.793Z,12.33
2022-10-25T19:44:54.105Z,12.29
2022-10-25T19:50:14.921Z,12.23
2022-10-25T19:55:35.685Z,12.28
2022-10-25T20:01:10.750Z,12.34
2022-10-25T20:06:35.467Z,12.40
2022-10-25T20:11:56.592Z,12.48
2022-10-25T20:17:17.729Z,12.59
2022-10-25T20:22:38.471Z,12.45
2022-10-25T20:28:02.441Z,12.30
2022-10-25T20:33:23.499Z,12.10
2022-10-25T20:38:45.493Z,12.02
2022-10-25T20:44:08.722Z,12.06
2022-10-25T20:49:30.631Z,11.99
2022-10-25T20:54:51.495Z,11.89
2022-10-25T21:00:16.965Z,11.84
2022-10-25T21:05:43.061Z,11.79
2022-10-25T21:11:06.323Z,11.77
2022-10-25T21:16:26.972Z,11.64
2022-10-25T21:21:47.464Z,11.67
2022-10-25T21:27:09.997Z,11.61
2022-10-25T21:32:31.118Z,11.66
2022-10-25T21:37:52.174Z,11.66
2022-10-25T21:43:12.976Z,11.54
2022-10-25T21:48:35.109Z,11.64
2022-10-25T21:53:55.993Z,11.54
2022-10-25T21:59:16.468Z,11.39
2022-10-25T22:04:37.237Z,11.20
2022-10-25T22:09:58.012Z,11.20
2022-10-25T22:15:18.875Z,11.21
2022-10-25T22:20:39.505Z,11.20
2022-10-25T22:26:08.510Z,11.08
2022-10-25T22:31:30.070Z,10.82
2022-10-25T22:36:50.747Z,10.58
2022-10-25T22:42:13.686Z,10.46
2022-10-25T22:47:34.589Z,10.46
2022-10-25T22:52:55.923Z,10.64
2022-10-25T22:58:16.485Z,10.86
2022-10-25T23:03:44.930Z,10.91
2022-10-25T23:09:11.737Z,10.74
2022-10-25T23:14:32.525Z,10.66
2022-10-25T23:19:53.223Z,10.65
2022-10-25T23:25:13.828Z,10.60
2022-10-25T23:30:37.809Z,10.64
2022-10-25T23:36:08.922Z,10.49
2022-10-25T23:41:29.316Z,10.41
2022-10-25T23:46:50.305Z,10.50
2022-10-25T23:52:11.045Z,10.45
2022-10-25T23:57:31.722Z,10.47
